sensor_id;sensor_type;location;lat;lon;timestamp;temperature;humidity
7822;DHT22;3956;50.558;9.678;2023-02-01T00:00:31;3.30;99.90
7822;DHT22;3956;50.558;9.678;2023-02-01T00:03:02;3.20;99.90
7822;DHT22;3956;50.558;9.678;2023-02-01T00:05:32;3.40;99.90
7822;DHT22;3956;50.558;9.678;2023-02-01T00:08:00;3.60;99.90
7822;DHT22;3956;50.558;9.678;2023-02-01T00:10:30;3.50;1.00
7822;DHT22;3956;50.558;9.678;2023-02-01T00:12:58;3.60;1.00
7822;DHT22;3956;50.558;9.678;2023-02-01T00:15:27;3.40;1.00
7822;DHT22;3956;50.558;9.678;2023-02-01T00:17:56;3.60;1.00
7822;DHT22;3956;50.558;9.678;2023-02-01T00:20:26;3.40;1.00
7822;DHT22;3956;50.558;9.678;2023-02-01T00:22:54;3.70;1.00
7822;DHT22;3956;50.558;9.678;2023-02-01T00:25:23;3.60;1.00
7822;DHT22;3956;50.558;9.678;2023-02-01T00:27:54;3.60;1.00
7822;DHT22;3956;50.558;9.678;2023-02-01T00:30:27;3.40;1.00
7822;DHT22;3956;50.558;9.678;2023-02-01T00:32:57;3.40;1.00
7822;DHT22;3956;50.558;9.678;2023-02-01T00:35:26;3.40;1.00
7822;DHT22;3956;50.558;9.678;2023-02-01T00:37:55;3.60;99.90
7822;DHT22;3956;50.558;9.678;2023-02-01T00:40:27;3.40;99.90
7822;DHT22;3956;50.558;9.678;2023-02-01T00:42:57;3.70;99.90
7822;DHT22;3956;50.558;9.678;2023-02-01T00:45:25;3.70;99.90
7822;DHT22;3956;50.558;9.678;2023-02-01T00:47:54;3.60;1.00
7822;DHT22;3956;50.558;9.678;2023-02-01T00:50:23;3.60;1.00
7822;DHT22;3956;50.558;9.678;2023-02-01T00:52:51;3.70;1.00
7822;DHT22;3956;50.558;9.678;2023-02-01T00:55:19;3.60;99.90
7822;DHT22;3956;50.558;9.678;2023-02-01T00:57:48;3.60;23.80
7822;DHT22;3956;50.558;9.678;2023-02-01T01:00:18;3.80;1.00
7822;DHT22;3956;50.558;9.678;2023-02-01T01:02:47;3.60;1.00
7822;DHT22;3956;50.558;9.678;2023-02-01T01:05:15;3.60;99.90
7822;DHT22;3956;50.558;9.678;2023-02-01T01:07:44;3.60;1.70
7822;DHT22;3956;50.558;9.678;2023-02-01T01:10:12;3.60;1.00
7822;DHT22;3956;50.558;9.678;2023-02-01T01:12:41;3.60;77.60
7822;DHT22;3956;50.558;9.678;2023-02-01T01:15:10;3.60;1.00
7822;DHT22;3956;50.558;9.678;2023-02-01T01:17:40;3.60;1.00
7822;DHT22;3956;50.558;9.678;2023-02-01T01:20:10;3.70;1.00
7822;DHT22;3956;50.558;9.678;2023-02-01T01:22:38;3.70;99.90
7822;DHT22;3956;50.558;9.678;2023-02-01T01:25:07;3.70;99.90
7822;DHT22;3956;50.558;9.678;2023-02-01T01:27:36;3.70;99.90
7822;DHT22;3956;50.558;9.678;2023-02-01T01:30:05;3.70;99.90
7822;DHT22;3956;50.558;9.678;2023-02-01T01:32:34;3.80;99.90
7822;DHT22;3956;50.558;9.678;2023-02-01T01:35:04;3.70;99.90
7822;DHT22;3956;50.558;9.678;2023-02-01T01:37:33;3.70;99.90
7822;DHT22;3956;50.558;9.678;2023-02-01T01:40:02;3.70;99.90
7822;DHT22;3956;50.558;9.678;2023-02-01T01:42:30;3.70;99.90
7822;DHT22;3956;50.558;9.678;2023-02-01T01:45:06;3.70;99.90
7822;DHT22;3956;50.558;9.678;2023-02-01T01:47:37;3.70;1.00
7822;DHT22;3956;50.558;9.678;2023-02-01T01:50:09;3.80;1.00
7822;DHT22;3956;50.558;9.678;2023-02-01T01:52:39;3.80;82.70
7822;DHT22;3956;50.558;9.678;2023-02-01T01:55:09;3.80;1.00
7822;DHT22;3956;50.558;9.678;2023-02-01T01:57:41;3.80;1.00
7822;DHT22;3956;50.558;9.678;2023-02-01T02:00:13;3.80;1.00
7822;DHT22;3956;50.558;9.678;2023-02-01T02:02:44;3.80;1.00
7822;DHT22;3956;50.558;9.678;2023-02-01T02:05:15;3.80;1.00
7822;DHT22;3956;50.558;9.678;2023-02-01T02:07:46;3.70;1.00
7822;DHT22;3956;50.558;9.678;2023-02-01T02:10:16;3.70;99.90
7822;DHT22;3956;50.558;9.678;2023-02-01T02:12:47;3.70;99.90
7822;DHT22;3956;50.558;9.678;2023-02-01T02:15:17;3.80;1.00
7822;DHT22;3956;50.558;9.678;2023-02-01T02:17:51;3.90;1.00
7822;DHT22;3956;50.558;9.678;2023-02-01T02:26:53;3.60;1.00
7822;DHT22;3956;50.558;9.678;2023-02-01T02:29:50;3.90;1.00
7822;DHT22;3956;50.558;9.678;2023-02-01T02:35:26;3.80;1.00
7822;DHT22;3956;50.558;9.678;2023-02-01T02:38:02;3.80;1.00
7822;DHT22;3956;50.558;9.678;2023-02-01T02:40:39;3.70;99.90
7822;DHT22;3956;50.558;9.678;2023-02-01T02:43:14;3.80;1.00
7822;DHT22;3956;50.558;9.678;2023-02-01T02:46:16;3.80;1.00
7822;DHT22;3956;50.558;9.678;2023-02-01T02:49:09;3.90;99.90
7822;DHT22;3956;50.558;9.678;2023-02-01T02:51:44;3.80;1.40
7822;DHT22;3956;50.558;9.678;2023-02-01T02:54:33;3.70;1.00
7822;DHT22;3956;50.558;9.678;2023-02-01T02:57:21;3.70;99.90
7822;DHT22;3956;50.558;9.678;2023-02-01T03:00:11;3.80;79.70
7822;DHT22;3956;50.558;9.678;2023-02-01T03:02:58;3.80;1.00
7822;DHT22;3956;50.558;9.678;2023-02-01T03:05:47;3.80;1.00
7822;DHT22;3956;50.558;9.678;2023-02-01T03:08:22;3.70;99.90
7822;DHT22;3956;50.558;9.678;2023-02-01T03:10:56;3.70;18.00
7822;DHT22;3956;50.558;9.678;2023-02-01T03:13:39;3.70;1.00
7822;DHT22;3956;50.558;9.678;2023-02-01T03:16:13;3.70;1.00
7822;DHT22;3956;50.558;9.678;2023-02-01T03:18:48;3.70;1.00
7822;DHT22;3956;50.558;9.678;2023-02-01T03:21:23;3.70;1.00
7822;DHT22;3956;50.558;9.678;2023-02-01T03:23:56;3.70;1.00
7822;DHT22;3956;50.558;9.678;2023-02-01T03:26:28;3.90;1.00
7822;DHT22;3956;50.558;9.678;2023-02-01T03:29:02;3.80;1.00
7822;DHT22;3956;50.558;9.678;2023-02-01T03:31:36;3.80;1.00
7822;DHT22;3956;50.558;9.678;2023-02-01T03:34:04;3.70;1.00
7822;DHT22;3956;50.558;9.678;2023-02-01T03:36:40;3.70;99.90
7822;DHT22;3956;50.558;9.678;2023-02-01T03:39:19;3.80;99.90
7822;DHT22;3956;50.558;9.678;2023-02-01T03:41:51;3.80;99.90
7822;DHT22;3956;50.558;9.678;2023-02-01T03:44:24;3.80;99.90
7822;DHT22;3956;50.558;9.678;2023-02-01T03:46:59;3.70;99.90
7822;DHT22;3956;50.558;9.678;2023-02-01T03:49:34;3.70;99.90
7822;DHT22;3956;50.558;9.678;2023-02-01T03:52:06;3.80;99.90
7822;DHT22;3956;50.558;9.678;2023-02-01T03:54:40;3.80;99.90
7822;DHT22;3956;50.558;9.678;2023-02-01T03:57:16;3.80;99.90
7822;DHT22;3956;50.558;9.678;2023-02-01T03:59:51;3.90;99.90
7822;DHT22;3956;50.558;9.678;2023-02-01T04:02:22;3.90;99.90
7822;DHT22;3956;50.558;9.678;2023-02-01T04:04:53;3.90;99.90
7822;DHT22;3956;50.558;9.678;2023-02-01T04:07:22;3.90;99.90
7822;DHT22;3956;50.558;9.678;2023-02-01T04:09:52;3.90;99.90
7822;DHT22;3956;50.558;9.678;2023-02-01T04:12:20;3.90;99.90
7822;DHT22;3956;50.558;9.678;2023-02-01T04:14:50;3.90;99.90
7822;DHT22;3956;50.558;9.678;2023-02-01T04:17:19;3.90;99.90
7822;DHT22;3956;50.558;9.678;2023-02-01T04:19:51;3.90;99.90
7822;DHT22;3956;50.558;9.678;2023-02-01T04:22:22;3.90;99.90
7822;DHT22;3956;50.558;9.678;2023-02-01T04:31:52;4.10;99.90
7822;DHT22;3956;50.558;9.678;2023-02-01T04:34:20;4.00;99.90
7822;DHT22;3956;50.558;9.678;2023-02-01T04:37:12;4.00;99.90
7822;DHT22;3956;50.558;9.678;2023-02-01T04:39:48;3.90;99.90
7822;DHT22;3956;50.558;9.678;2023-02-01T04:42:29;4.00;99.90
7822;DHT22;3956;50.558;9.678;2023-02-01T04:45:03;3.90;99.90
7822;DHT22;3956;50.558;9.678;2023-02-01T04:47:51;3.90;99.90
7822;DHT22;3956;50.558;9.678;2023-02-01T04:50:44;3.80;99.90
7822;DHT22;3956;50.558;9.678;2023-02-01T04:53:16;3.80;99.90
7822;DHT22;3956;50.558;9.678;2023-02-01T04:55:44;3.80;99.90
7822;DHT22;3956;50.558;9.678;2023-02-01T04:58:12;3.80;99.90
7822;DHT22;3956;50.558;9.678;2023-02-01T05:00:42;3.80;99.90
7822;DHT22;3956;50.558;9.678;2023-02-01T05:03:10;3.80;99.90
7822;DHT22;3956;50.558;9.678;2023-02-01T05:05:39;3.80;99.90
7822;DHT22;3956;50.558;9.678;2023-02-01T05:08:07;3.80;99.90
7822;DHT22;3956;50.558;9.678;2023-02-01T05:10:49;3.80;99.90
7822;DHT22;3956;50.558;9.678;2023-02-01T05:14:00;3.80;99.90
7822;DHT22;3956;50.558;9.678;2023-02-01T05:17:21;3.80;99.90
7822;DHT22;3956;50.558;9.678;2023-02-01T05:19:51;3.80;99.90
7822;DHT22;3956;50.558;9.678;2023-02-01T05:22:20;3.80;99.90
7822;DHT22;3956;50.558;9.678;2023-02-01T05:25:07;3.70;99.90
7822;DHT22;3956;50.558;9.678;2023-02-01T05:27:59;3.80;99.90
7822;DHT22;3956;50.558;9.678;2023-02-01T05:30:27;3.70;99.90
7822;DHT22;3956;50.558;9.678;2023-02-01T05:32:57;3.80;99.90
7822;DHT22;3956;50.558;9.678;2023-02-01T05:35:26;3.80;99.90
7822;DHT22;3956;50.558;9.678;2023-02-01T05:37:54;3.70;99.90
7822;DHT22;3956;50.558;9.678;2023-02-01T05:40:23;3.80;99.90
7822;DHT22;3956;50.558;9.678;2023-02-01T05:43:13;3.80;99.90
7822;DHT22;3956;50.558;9.678;2023-02-01T05:49:17;3.80;99.90
7822;DHT22;3956;50.558;9.678;2023-02-01T05:51:45;3.80;99.90
7822;DHT22;3956;50.558;9.678;2023-02-01T05:54:14;3.80;99.90
7822;DHT22;3956;50.558;9.678;2023-02-01T05:56:42;3.70;99.90
7822;DHT22;3956;50.558;9.678;2023-02-01T05:59:10;3.70;99.90
7822;DHT22;3956;50.558;9.678;2023-02-01T06:01:46;3.70;99.90
7822;DHT22;3956;50.558;9.678;2023-02-01T06:04:39;3.70;99.90
7822;DHT22;3956;50.558;9.678;2023-02-01T06:10:33;3.80;97.20
7822;DHT22;3956;50.558;9.678;2023-02-01T06:13:12;3.90;87.20
7822;DHT22;3956;50.558;9.678;2023-02-01T06:15:47;3.80;99.20
7822;DHT22;3956;50.558;9.678;2023-02-01T06:18:31;3.80;92.30
7822;DHT22;3956;50.558;9.678;2023-02-01T06:21:51;3.80;95.20
7822;DHT22;3956;50.558;9.678;2023-02-01T06:24:51;3.90;86.80
7822;DHT22;3956;50.558;9.678;2023-02-01T06:27:21;3.90;84.40
7822;DHT22;3956;50.558;9.678;2023-02-01T06:30:20;4.00;84.10
7822;DHT22;3956;50.558;9.678;2023-02-01T06:32:51;4.00;68.90
7822;DHT22;3956;50.558;9.678;2023-02-01T06:35:26;3.90;72.90
7822;DHT22;3956;50.558;9.678;2023-02-01T06:38:15;4.00;73.70
7822;DHT22;3956;50.558;9.678;2023-02-01T06:41:02;4.10;73.30
7822;DHT22;3956;50.558;9.678;2023-02-01T06:43:38;4.10;53.20
7822;DHT22;3956;50.558;9.678;2023-02-01T06:46:12;4.00;64.50
7822;DHT22;3956;50.558;9.678;2023-02-01T06:48:42;4.00;73.70
7822;DHT22;3956;50.558;9.678;2023-02-01T06:51:21;4.00;57.90
7822;DHT22;3956;50.558;9.678;2023-02-01T06:54:02;4.00;59.60
7822;DHT22;3956;50.558;9.678;2023-02-01T06:57:01;4.00;54.60
7822;DHT22;3956;50.558;9.678;2023-02-01T06:59:31;4.00;55.40
7822;DHT22;3956;50.558;9.678;2023-02-01T07:02:09;3.90;58.00
7822;DHT22;3956;50.558;9.678;2023-02-01T07:05:24;3.90;60.70
7822;DHT22;3956;50.558;9.678;2023-02-01T07:08:37;3.90;57.60
7822;DHT22;3956;50.558;9.678;2023-02-01T07:18:00;4.00;57.00
7822;DHT22;3956;50.558;9.678;2023-02-01T07:20:37;4.00;57.70
7822;DHT22;3956;50.558;9.678;2023-02-01T07:23:11;4.00;57.50
7822;DHT22;3956;50.558;9.678;2023-02-01T07:25:48;4.10;54.60
7822;DHT22;3956;50.558;9.678;2023-02-01T07:28:24;4.10;53.50
7822;DHT22;3956;50.558;9.678;2023-02-01T07:30:53;4.10;57.30
7822;DHT22;3956;50.558;9.678;2023-02-01T07:33:27;4.10;52.80
7822;DHT22;3956;50.558;9.678;2023-02-01T07:35:57;4.20;50.30
7822;DHT22;3956;50.558;9.678;2023-02-01T07:38:27;4.20;40.00
7822;DHT22;3956;50.558;9.678;2023-02-01T07:40:59;4.30;42.00
7822;DHT22;3956;50.558;9.678;2023-02-01T07:43:52;4.30;37.00
7822;DHT22;3956;50.558;9.678;2023-02-01T07:46:52;4.40;31.90
7822;DHT22;3956;50.558;9.678;2023-02-01T07:49:22;4.40;36.50
7822;DHT22;3956;50.558;9.678;2023-02-01T07:51:51;4.30;35.20
7822;DHT22;3956;50.558;9.678;2023-02-01T07:54:21;4.30;35.50
7822;DHT22;3956;50.558;9.678;2023-02-01T07:56:56;4.30;34.00
7822;DHT22;3956;50.558;9.678;2023-02-01T07:59:26;4.30;35.10
7822;DHT22;3956;50.558;9.678;2023-02-01T08:01:56;4.30;34.50
7822;DHT22;3956;50.558;9.678;2023-02-01T08:04:36;4.70;34.90
7822;DHT22;3956;50.558;9.678;2023-02-01T08:10:58;4.50;29.00
7822;DHT22;3956;50.558;9.678;2023-02-01T08:13:27;4.50;29.40
7822;DHT22;3956;50.558;9.678;2023-02-01T08:15:58;4.40;38.80
7822;DHT22;3956;50.558;9.678;2023-02-01T08:18:26;4.40;37.00
7822;DHT22;3956;50.558;9.678;2023-02-01T08:21:02;4.40;36.90
7822;DHT22;3956;50.558;9.678;2023-02-01T08:23:40;4.40;30.90
7822;DHT22;3956;50.558;9.678;2023-02-01T08:26:47;4.40;35.10
7822;DHT22;3956;50.558;9.678;2023-02-01T08:30:06;4.50;39.00
7822;DHT22;3956;50.558;9.678;2023-02-01T08:32:43;4.50;37.20
7822;DHT22;3956;50.558;9.678;2023-02-01T08:35:45;4.50;35.70
7822;DHT22;3956;50.558;9.678;2023-02-01T08:42:06;4.50;35.00
7822;DHT22;3956;50.558;9.678;2023-02-01T08:45:05;4.50;36.70
7822;DHT22;3956;50.558;9.678;2023-02-01T08:47:36;4.50;40.40
7822;DHT22;3956;50.558;9.678;2023-02-01T08:50:09;4.40;43.20
7822;DHT22;3956;50.558;9.678;2023-02-01T08:52:39;4.40;42.40
7822;DHT22;3956;50.558;9.678;2023-02-01T08:55:12;4.40;42.90
7822;DHT22;3956;50.558;9.678;2023-02-01T08:57:43;4.50;42.30
7822;DHT22;3956;50.558;9.678;2023-02-01T09:00:14;4.50;44.20
7822;DHT22;3956;50.558;9.678;2023-02-01T09:02:47;4.50;46.90
7822;DHT22;3956;50.558;9.678;2023-02-01T09:06:03;4.50;40.80
7822;DHT22;3956;50.558;9.678;2023-02-01T09:08:43;4.50;44.60
7822;DHT22;3956;50.558;9.678;2023-02-01T09:11:16;4.50;44.80
7822;DHT22;3956;50.558;9.678;2023-02-01T09:17:51;4.60;40.70
7822;DHT22;3956;50.558;9.678;2023-02-01T09:21:04;4.60;39.90
7822;DHT22;3956;50.558;9.678;2023-02-01T09:23:33;4.60;35.40
7822;DHT22;3956;50.558;9.678;2023-02-01T09:26:04;4.60;31.40
7822;DHT22;3956;50.558;9.678;2023-02-01T09:28:33;4.60;31.40
7822;DHT22;3956;50.558;9.678;2023-02-01T09:31:02;4.60;36.60
7822;DHT22;3956;50.558;9.678;2023-02-01T09:33:32;4.60;57.80
7822;DHT22;3956;50.558;9.678;2023-02-01T09:36:03;4.60;50.40
7822;DHT22;3956;50.558;9.678;2023-02-01T09:38:34;4.60;45.10
7822;DHT22;3956;50.558;9.678;2023-02-01T09:41:16;4.60;43.00
7822;DHT22;3956;50.558;9.678;2023-02-01T09:44:01;4.50;49.20
7822;DHT22;3956;50.558;9.678;2023-02-01T09:46:53;4.50;49.40
7822;DHT22;3956;50.558;9.678;2023-02-01T09:49:27;4.50;58.10
7822;DHT22;3956;50.558;9.678;2023-02-01T09:52:04;4.50;59.60
7822;DHT22;3956;50.558;9.678;2023-02-01T09:54:41;4.40;54.90
7822;DHT22;3956;50.558;9.678;2023-02-01T09:57:14;4.40;54.50
7822;DHT22;3956;50.558;9.678;2023-02-01T09:59:49;4.40;51.60
7822;DHT22;3956;50.558;9.678;2023-02-01T10:09:49;4.50;47.90
7822;DHT22;3956;50.558;9.678;2023-02-01T10:12:51;4.50;53.60
7822;DHT22;3956;50.558;9.678;2023-02-01T10:15:34;4.60;52.20
7822;DHT22;3956;50.558;9.678;2023-02-01T10:18:19;4.50;47.00
7822;DHT22;3956;50.558;9.678;2023-02-01T10:20:57;4.50;48.90
7822;DHT22;3956;50.558;9.678;2023-02-01T10:24:03;4.60;45.80
7822;DHT22;3956;50.558;9.678;2023-02-01T10:30:33;4.60;37.50
7822;DHT22;3956;50.558;9.678;2023-02-01T10:33:55;4.70;38.50
7822;DHT22;3956;50.558;9.678;2023-02-01T10:37:04;4.70;43.40
7822;DHT22;3956;50.558;9.678;2023-02-01T10:39:54;4.80;35.40
7822;DHT22;3956;50.558;9.678;2023-02-01T10:42:27;4.80;1.00
7822;DHT22;3956;50.558;9.678;2023-02-01T10:45:03;4.80;39.40
7822;DHT22;3956;50.558;9.678;2023-02-01T10:47:33;4.80;39.00
7822;DHT22;3956;50.558;9.678;2023-02-01T10:50:31;4.70;33.20
7822;DHT22;3956;50.558;9.678;2023-02-01T10:53:10;4.80;47.00
7822;DHT22;3956;50.558;9.678;2023-02-01T10:55:57;4.70;34.30
7822;DHT22;3956;50.558;9.678;2023-02-01T10:58:28;4.70;43.10
7822;DHT22;3956;50.558;9.678;2023-02-01T11:01:02;4.80;39.10
7822;DHT22;3956;50.558;9.678;2023-02-01T11:04:00;4.70;44.00
7822;DHT22;3956;50.558;9.678;2023-02-01T11:06:32;4.80;42.00
7822;DHT22;3956;50.558;9.678;2023-02-01T11:09:24;4.70;36.90
7822;DHT22;3956;50.558;9.678;2023-02-01T11:12:04;4.80;37.50
7822;DHT22;3956;50.558;9.678;2023-02-01T11:18:16;4.70;40.90
7822;DHT22;3956;50.558;9.678;2023-02-01T11:20:47;4.70;35.50
7822;DHT22;3956;50.558;9.678;2023-02-01T11:23:20;4.70;36.90
7822;DHT22;3956;50.558;9.678;2023-02-01T11:26:10;4.70;39.60
7822;DHT22;3956;50.558;9.678;2023-02-01T11:29:12;4.80;63.70
7822;DHT22;3956;50.558;9.678;2023-02-01T11:31:50;4.80;32.50
7822;DHT22;3956;50.558;9.678;2023-02-01T11:34:28;4.70;35.10
7822;DHT22;3956;50.558;9.678;2023-02-01T11:37:23;4.70;31.60
7822;DHT22;3956;50.558;9.678;2023-02-01T11:40:29;4.80;36.50
7822;DHT22;3956;50.558;9.678;2023-02-01T11:43:34;4.80;33.70
7822;DHT22;3956;50.558;9.678;2023-02-01T11:46:18;4.90;27.90
7822;DHT22;3956;50.558;9.678;2023-02-01T11:48:54;4.90;25.60
7822;DHT22;3956;50.558;9.678;2023-02-01T11:51:44;4.90;28.90
7822;DHT22;3956;50.558;9.678;2023-02-01T11:54:40;4.90;25.50
7822;DHT22;3956;50.558;9.678;2023-02-01T11:57:35;5.10;19.80
7822;DHT22;3956;50.558;9.678;2023-02-01T12:00:56;5.00;19.10
7822;DHT22;3956;50.558;9.678;2023-02-01T12:06:57;4.90;22.30
7822;DHT22;3956;50.558;9.678;2023-02-01T12:09:50;4.90;15.10
7822;DHT22;3956;50.558;9.678;2023-02-01T12:12:59;5.00;16.30
7822;DHT22;3956;50.558;9.678;2023-02-01T12:16:35;5.00;8.10
7822;DHT22;3956;50.558;9.678;2023-02-01T12:20:12;5.00;3.30
7822;DHT22;3956;50.558;9.678;2023-02-01T12:22:54;5.00;1.00
7822;DHT22;3956;50.558;9.678;2023-02-01T12:26:33;5.20;1.00
7822;DHT22;3956;50.558;9.678;2023-02-01T12:29:19;5.00;5.40
7822;DHT22;3956;50.558;9.678;2023-02-01T12:32:11;5.00;6.30
7822;DHT22;3956;50.558;9.678;2023-02-01T12:35:01;5.00;3.60
7822;DHT22;3956;50.558;9.678;2023-02-01T12:37:44;5.00;3.00
7822;DHT22;3956;50.558;9.678;2023-02-01T12:40:34;5.10;1.00
7822;DHT22;3956;50.558;9.678;2023-02-01T12:43:51;5.10;1.00
7822;DHT22;3956;50.558;9.678;2023-02-01T12:46:45;5.10;1.00
7822;DHT22;3956;50.558;9.678;2023-02-01T12:49:17;5.10;4.60
7822;DHT22;3956;50.558;9.678;2023-02-01T12:51:52;5.10;1.00
7822;DHT22;3956;50.558;9.678;2023-02-01T12:55:05;5.10;2.30
7822;DHT22;3956;50.558;9.678;2023-02-01T13:01:35;5.10;2.50
7822;DHT22;3956;50.558;9.678;2023-02-01T13:04:18;5.10;2.80
7822;DHT22;3956;50.558;9.678;2023-02-01T13:06:53;5.10;2.90
7822;DHT22;3956;50.558;9.678;2023-02-01T13:09:33;5.10;2.40
7822;DHT22;3956;50.558;9.678;2023-02-01T13:12:20;5.20;1.00
7822;DHT22;3956;50.558;9.678;2023-02-01T13:15:14;5.20;1.00
7822;DHT22;3956;50.558;9.678;2023-02-01T13:18:13;5.20;3.00
7822;DHT22;3956;50.558;9.678;2023-02-01T13:20:52;5.20;3.70
7822;DHT22;3956;50.558;9.678;2023-02-01T13:24:06;5.20;1.70
7822;DHT22;3956;50.558;9.678;2023-02-01T13:27:14;5.30;2.90
7822;DHT22;3956;50.558;9.678;2023-02-01T13:29:50;5.30;1.00
7822;DHT22;3956;50.558;9.678;2023-02-01T13:32:41;5.40;1.40
7822;DHT22;3956;50.558;9.678;2023-02-01T13:36:22;5.40;2.10
7822;DHT22;3956;50.558;9.678;2023-02-01T13:39:33;5.30;1.00
7822;DHT22;3956;50.558;9.678;2023-02-01T13:42:14;5.40;1.00
7822;DHT22;3956;50.558;9.678;2023-02-01T13:44:46;5.30;1.00
7822;DHT22;3956;50.558;9.678;2023-02-01T13:47:28;5.30;1.00
7822;DHT22;3956;50.558;9.678;2023-02-01T13:50:12;5.30;1.00
7822;DHT22;3956;50.558;9.678;2023-02-01T13:53:13;5.30;1.00
7822;DHT22;3956;50.558;9.678;2023-02-01T13:55:56;5.30;1.00
7822;DHT22;3956;50.558;9.678;2023-02-01T13:58:35;5.30;1.00
7822;DHT22;3956;50.558;9.678;2023-02-01T14:01:36;5.30;1.00
7822;DHT22;3956;50.558;9.678;2023-02-01T14:04:54;5.20;1.00
7822;DHT22;3956;50.558;9.678;2023-02-01T14:08:35;5.30;1.00
7822;DHT22;3956;50.558;9.678;2023-02-01T14:11:41;5.30;1.00
7822;DHT22;3956;50.558;9.678;2023-02-01T14:14:43;5.30;1.00
7822;DHT22;3956;50.558;9.678;2023-02-01T14:17:34;5.30;1.00
7822;DHT22;3956;50.558;9.678;2023-02-01T14:20:39;5.30;1.00
7822;DHT22;3956;50.558;9.678;2023-02-01T14:30:57;5.40;1.00
7822;DHT22;3956;50.558;9.678;2023-02-01T14:33:28;5.40;1.00
7822;DHT22;3956;50.558;9.678;2023-02-01T14:36:12;5.40;1.00
7822;DHT22;3956;50.558;9.678;2023-02-01T14:38:51;5.40;1.00
7822;DHT22;3956;50.558;9.678;2023-02-01T14:41:32;5.50;1.00
7822;DHT22;3956;50.558;9.678;2023-02-01T14:47:32;5.50;1.00
7822;DHT22;3956;50.558;9.678;2023-02-01T14:50:30;5.50;1.00
7822;DHT22;3956;50.558;9.678;2023-02-01T14:53:21;5.50;1.00
7822;DHT22;3956;50.558;9.678;2023-02-01T14:55:55;5.50;1.00
7822;DHT22;3956;50.558;9.678;2023-02-01T14:58:40;5.50;1.00
7822;DHT22;3956;50.558;9.678;2023-02-01T15:01:48;5.50;1.00
7822;DHT22;3956;50.558;9.678;2023-02-01T15:04:21;5.50;1.00
7822;DHT22;3956;50.558;9.678;2023-02-01T15:06:54;5.50;1.00
7822;DHT22;3956;50.558;9.678;2023-02-01T15:09:28;5.50;1.00
7822;DHT22;3956;50.558;9.678;2023-02-01T15:15:25;5.60;1.00
7822;DHT22;3956;50.558;9.678;2023-02-01T15:18:19;5.50;1.00
7822;DHT22;3956;50.558;9.678;2023-02-01T15:21:03;5.60;1.00
7822;DHT22;3956;50.558;9.678;2023-02-01T15:24:13;5.60;1.00
7822;DHT22;3956;50.558;9.678;2023-02-01T15:26:49;5.60;1.00
7822;DHT22;3956;50.558;9.678;2023-02-01T15:29:25;5.50;1.00
7822;DHT22;3956;50.558;9.678;2023-02-01T15:32:14;5.50;1.00
7822;DHT22;3956;50.558;9.678;2023-02-01T15:39:33;5.50;1.00
7822;DHT22;3956;50.558;9.678;2023-02-01T15:42:37;5.50;1.00
7822;DHT22;3956;50.558;9.678;2023-02-01T15:45:47;5.60;1.00
7822;DHT22;3956;50.558;9.678;2023-02-01T15:48:23;5.50;1.00
7822;DHT22;3956;50.558;9.678;2023-02-01T15:50:53;5.50;1.00
7822;DHT22;3956;50.558;9.678;2023-02-01T15:53:26;5.50;1.00
7822;DHT22;3956;50.558;9.678;2023-02-01T15:56:15;5.50;1.00
7822;DHT22;3956;50.558;9.678;2023-02-01T15:59:22;5.50;1.00
7822;DHT22;3956;50.558;9.678;2023-02-01T16:02:27;5.50;1.00
7822;DHT22;3956;50.558;9.678;2023-02-01T16:04:56;5.50;1.00
7822;DHT22;3956;50.558;9.678;2023-02-01T16:07:40;5.50;1.00
7822;DHT22;3956;50.558;9.678;2023-02-01T16:10:26;5.50;1.00
7822;DHT22;3956;50.558;9.678;2023-02-01T16:12:58;5.50;1.00
7822;DHT22;3956;50.558;9.678;2023-02-01T16:15:29;5.40;1.00
7822;DHT22;3956;50.558;9.678;2023-02-01T16:18:01;5.50;1.00
7822;DHT22;3956;50.558;9.678;2023-02-01T16:20:38;5.40;1.00
7822;DHT22;3956;50.558;9.678;2023-02-01T16:23:14;5.40;1.00
7822;DHT22;3956;50.558;9.678;2023-02-01T16:25:54;5.30;1.00
7822;DHT22;3956;50.558;9.678;2023-02-01T16:35:48;5.30;1.00
7822;DHT22;3956;50.558;9.678;2023-02-01T16:38:35;5.20;1.90
7822;DHT22;3956;50.558;9.678;2023-02-01T16:41:16;5.20;1.50
7822;DHT22;3956;50.558;9.678;2023-02-01T16:44:37;5.20;1.00
7822;DHT22;3956;50.558;9.678;2023-02-01T16:47:38;5.20;1.00
7822;DHT22;3956;50.558;9.678;2023-02-01T16:50:15;5.20;3.10
7822;DHT22;3956;50.558;9.678;2023-02-01T16:53:10;5.20;2.30
7822;DHT22;3956;50.558;9.678;2023-02-01T16:56:20;5.20;1.40
7822;DHT22;3956;50.558;9.678;2023-02-01T16:59:19;5.20;1.00
7822;DHT22;3956;50.558;9.678;2023-02-01T17:01:53;5.20;1.00
7822;DHT22;3956;50.558;9.678;2023-02-01T17:04:50;5.30;1.00
7822;DHT22;3956;50.558;9.678;2023-02-01T17:07:44;5.30;1.00
7822;DHT22;3956;50.558;9.678;2023-02-01T17:10:46;5.30;1.00
7822;DHT22;3956;50.558;9.678;2023-02-01T17:13:19;5.40;1.00
7822;DHT22;3956;50.558;9.678;2023-02-01T17:16:22;5.30;1.00
7822;DHT22;3956;50.558;9.678;2023-02-01T17:18:56;5.30;1.00
7822;DHT22;3956;50.558;9.678;2023-02-01T17:21:28;5.30;1.00
7822;DHT22;3956;50.558;9.678;2023-02-01T17:23:59;5.30;1.00
7822;DHT22;3956;50.558;9.678;2023-02-01T17:26:33;5.30;1.00
7822;DHT22;3956;50.558;9.678;2023-02-01T17:31:47;5.30;1.00
7822;DHT22;3956;50.558;9.678;2023-02-01T17:35:40;5.30;1.00
7822;DHT22;3956;50.558;9.678;2023-02-01T17:38:41;5.30;1.00
7822;DHT22;3956;50.558;9.678;2023-02-01T17:41:23;5.30;1.00
7822;DHT22;3956;50.558;9.678;2023-02-01T17:43:55;5.30;1.00
7822;DHT22;3956;50.558;9.678;2023-02-01T17:46:27;5.30;1.60
7822;DHT22;3956;50.558;9.678;2023-02-01T17:48:58;5.20;3.00
7822;DHT22;3956;50.558;9.678;2023-02-01T17:51:28;5.20;1.40
7822;DHT22;3956;50.558;9.678;2023-02-01T17:53:58;5.20;2.30
7822;DHT22;3956;50.558;9.678;2023-02-01T17:56:30;5.20;2.10
7822;DHT22;3956;50.558;9.678;2023-02-01T18:01:44;5.20;2.60
7822;DHT22;3956;50.558;9.678;2023-02-01T18:04:16;5.20;1.90
7822;DHT22;3956;50.558;9.678;2023-02-01T18:06:49;5.10;4.60
7822;DHT22;3956;50.558;9.678;2023-02-01T18:09:21;5.10;1.50
7822;DHT22;3956;50.558;9.678;2023-02-01T18:11:54;5.10;1.60
7822;DHT22;3956;50.558;9.678;2023-02-01T18:14:25;5.10;1.40
7822;DHT22;3956;50.558;9.678;2023-02-01T18:17:05;5.10;3.00
7822;DHT22;3956;50.558;9.678;2023-02-01T18:19:38;5.10;1.00
7822;DHT22;3956;50.558;9.678;2023-02-01T18:22:16;5.10;1.00
7822;DHT22;3956;50.558;9.678;2023-02-01T18:24:46;5.10;1.00
7822;DHT22;3956;50.558;9.678;2023-02-01T18:27:18;5.20;1.00
7822;DHT22;3956;50.558;9.678;2023-02-01T18:29:48;5.20;1.00
7822;DHT22;3956;50.558;9.678;2023-02-01T18:32:26;5.20;1.00
7822;DHT22;3956;50.558;9.678;2023-02-01T18:35:01;5.20;1.00
7822;DHT22;3956;50.558;9.678;2023-02-01T18:37:34;5.30;1.00
7822;DHT22;3956;50.558;9.678;2023-02-01T18:40:08;5.30;1.00
7822;DHT22;3956;50.558;9.678;2023-02-01T18:43:17;5.40;1.00
7822;DHT22;3956;50.558;9.678;2023-02-01T18:46:19;5.30;14.90
7822;DHT22;3956;50.558;9.678;2023-02-01T18:48:52;5.10;18.80
7822;DHT22;3956;50.558;9.678;2023-02-01T18:51:24;5.10;14.30
7822;DHT22;3956;50.558;9.678;2023-02-01T18:53:57;5.10;17.00
7822;DHT22;3956;50.558;9.678;2023-02-01T18:56:28;5.00;99.90
7822;DHT22;3956;50.558;9.678;2023-02-01T18:58:57;4.80;58.70
7822;DHT22;3956;50.558;9.678;2023-02-01T19:01:28;4.80;1.00
7822;DHT22;3956;50.558;9.678;2023-02-01T19:03:59;4.90;99.90
7822;DHT22;3956;50.558;9.678;2023-02-01T19:06:33;4.80;99.90
7822;DHT22;3956;50.558;9.678;2023-02-01T19:09:04;4.80;99.90
7822;DHT22;3956;50.558;9.678;2023-02-01T19:11:37;4.80;99.90
7822;DHT22;3956;50.558;9.678;2023-02-01T19:14:08;4.80;99.90
7822;DHT22;3956;50.558;9.678;2023-02-01T19:16:38;4.80;99.90
7822;DHT22;3956;50.558;9.678;2023-02-01T19:19:08;4.80;99.90
7822;DHT22;3956;50.558;9.678;2023-02-01T19:21:36;4.80;99.90
7822;DHT22;3956;50.558;9.678;2023-02-01T19:24:06;4.80;99.90
7822;DHT22;3956;50.558;9.678;2023-02-01T19:26:35;4.90;96.90
7822;DHT22;3956;50.558;9.678;2023-02-01T19:29:10;4.90;93.10